Terminal Aerodrome Forecast
Issued by NWS

Home | Current Version | Previous Version | Text Only | Print | Product List | Glossary On
Versions: 1 2 3 4 5 6 7 8 9 10 11 12 13 14 15 16 17 18 19 20 21 22 23 24 25 26 27
333
FTUS41 KGYX 200307 AAA
TAFLEB
TAF AMD
KLEB 200307Z 2003/2024 18006KT P6SM SCT040 BKN200
     FM201200 23005KT P6SM SCT120 BKN250 WS020/25035KT
     FM201500 27010KT P6SM SCT120 BKN250=

USA.gov is the U.S. government's official web portal to all federal, state and local government web resources and services.